Time;durP1;ratioP1;P1;durP2;ratioP2;P2;SDS_P1;SDS_P2;PMS_P1;PMS_P2;Temp;Humidity;BMP_temperature;BMP_pressure;BME280_temperature;BME280_humidity;BME280_pressure;Samples;Min_cycle;Max_cycle;Signal;HPM_P1;HPM_P2
2021/01/31 00:00:36;;;;;;;54.10;28.40;;;;;;;-2.54;81.98;97376.96;128361;1108;22892;-64
2021/01/31 00:03:09;;;;;;;52.63;29.10;;;;;;;-2.58;81.61;97392.59;128181;1107;23516;-64
2021/01/31 00:05:36;;;;;;;48.40;25.37;;;;;;;-2.60;81.65;97370.70;128307;1107;22820;-64
2021/01/31 00:11:36;;;;;;;44.60;24.30;;;;;;;-2.62;81.27;97314.14;128234;1108;23503;-64
2021/01/31 00:14:04;;;;;;;42.57;22.60;;;;;;;-2.66;81.65;97326.29;128323;1108;22805;-64
2021/01/31 00:16:31;;;;;;;42.30;24.07;;;;;;;-2.71;81.56;97338.66;128234;1109;23643;-64
2021/01/31 00:18:59;;;;;;;43.73;22.60;;;;;;;-2.75;81.25;97361.49;128354;1107;22865;-64
2021/01/31 00:21:26;;;;;;;47.13;25.00;;;;;;;-2.80;80.98;97375.48;128376;1108;23027;-64
2021/01/31 00:23:53;;;;;;;38.93;21.97;;;;;;;-2.83;81.17;97375.11;128266;1108;23959;-63
2021/01/31 00:26:21;;;;;;;47.37;23.57;;;;;;;-2.83;81.73;97375.92;128382;1107;24427;-64
2021/01/31 00:28:48;;;;;;;51.73;25.73;;;;;;;-2.83;81.31;97375.11;128149;1107;23969;-64
2021/01/31 00:31:16;;;;;;;47.77;24.67;;;;;;;-2.85;81.47;97392.14;128268;1109;22908;-64
2021/01/31 00:33:43;;;;;;;43.83;25.17;;;;;;;-2.85;81.37;97391.33;128197;1106;22978;-64
2021/01/31 00:36:11;;;;;;;41.63;23.00;;;;;;;-2.82;81.86;97403.39;128310;1108;22830;-64
2021/01/31 00:38:39;;;;;;;42.17;21.57;;;;;;;-2.78;81.45;97402.73;128174;1106;22955;-64
2021/01/31 00:41:06;;;;;;;44.37;22.10;;;;;;;-2.75;81.89;97402.28;128346;1107;23638;-64
2021/01/31 00:43:33;;;;;;;38.43;20.80;;;;;;;-2.75;81.85;97401.47;128192;1108;23055;-64
2021/01/31 00:46:01;;;;;;;42.73;23.63;;;;;;;-2.79;81.35;97411.75;128344;1107;22943;-64
2021/01/31 00:48:28;;;;;;;42.90;21.60;;;;;;;-2.84;81.77;97408.94;128155;1107;22912;-64
2021/01/31 00:50:55;;;;;;;47.37;25.30;;;;;;;-2.91;81.14;97425.02;128303;1108;22891;-64
2021/01/31 00:53:24;;;;;;;42.33;24.47;;;;;;;-3.02;85.19;97422.27;128155;1107;22949;-63
2021/01/31 00:55:57;;;;;;;47.63;25.57;;;;;;;-3.11;85.76;97426.28;127110;1109;23101;-63
2021/01/31 00:58:32;;;;;;;48.87;25.83;;;;;;;-3.16;85.22;97440.25;124432;1108;23051;-62
2021/01/31 01:01:00;;;;;;;53.23;27.13;;;;;;;-3.23;85.09;97450.99;128312;1107;22981;-63
2021/01/31 01:03:27;;;;;;;52.23;25.70;;;;;;;-3.24;85.26;97436.05;128200;1107;24003;-63
2021/01/31 01:05:59;;;;;;;44.27;23.87;;;;;;;-3.30;84.41;97444.91;128269;1108;22836;-63
2021/01/31 01:08:26;;;;;;;49.17;24.73;;;;;;;-3.32;85.29;97456.84;128217;1107;22978;-64
2021/01/31 01:10:54;;;;;;;39.97;22.50;;;;;;;-3.33;84.63;97464.02;128284;1107;22955;-63
2021/01/31 01:13:21;;;;;;;45.17;23.17;;;;;;;-3.31;84.37;97459.25;128290;1107;22822;-64
2021/01/31 01:15:49;;;;;;;42.60;22.73;;;;;;;-3.34;84.52;97459.72;128166;1108;22987;-64
2021/01/31 01:18:16;;;;;;;44.00;22.67;;;;;;;-3.36;84.12;97455.64;128297;1107;22841;-64
2021/01/31 01:20:47;;;;;;;38.97;20.33;;;;;;;-3.37;84.44;97472.64;128189;1108;23439;-64
2021/01/31 01:23:14;;;;;;;38.80;21.13;;;;;;;-3.42;83.56;97475.95;128365;1108;23008;-64
2021/01/31 01:25:42;;;;;;;38.87;20.70;;;;;;;-3.43;83.48;97481.50;128177;1106;23400;-64
2021/01/31 01:28:09;;;;;;;30.57;17.67;;;;;;;-3.45;83.99;97481.71;128249;1107;22843;-64
2021/01/31 01:30:36;;;;;;;29.47;17.33;;;;;;;-3.46;83.13;97485.41;128218;1107;23641;-64
2021/01/31 01:33:04;;;;;;;27.63;15.00;;;;;;;-3.47;83.38;97490.97;128289;1106;22840;-64
2021/01/31 01:35:31;;;;;;;26.53;15.47;;;;;;;-3.52;83.46;97488.95;128169;1107;22876;-63
2021/01/31 01:37:59;;;;;;;26.87;15.57;;;;;;;-3.53;83.64;97503.30;128303;1109;23785;-64
2021/01/31 01:40:36;;;;;;;21.43;13.17;;;;;;;-3.51;83.23;97503.90;128190;1107;22829;-63
2021/01/31 01:43:04;;;;;;;26.07;14.25;;;;;;;-3.51;83.42;97513.73;128314;1107;23122;-63
2021/01/31 01:45:32;;;;;;;20.03;11.27;;;;;;;-3.52;83.47;97518.23;128150;1107;24179;-64
2021/01/31 01:48:04;;;;;;;20.70;12.37;;;;;;;-3.55;83.21;97518.66;128300;1107;22908;-64
2021/01/31 01:50:58;;;;;;;17.57;11.70;;;;;;;-3.58;83.48;97517.25;128194;1108;22994;-64
2021/01/31 01:53:25;;;;;;;19.17;10.90;;;;;;;-3.58;82.39;97529.73;128331;1109;22881;-64
2021/01/31 01:56:04;;;;;;;17.50;10.60;;;;;;;-3.62;82.98;97539.20;127092;1108;23234;-63
2021/01/31 01:58:32;;;;;;;16.43;9.70;;;;;;;-3.60;83.13;97534.45;128288;1108;23067;-63
2021/01/31 02:00:59;;;;;;;19.17;10.60;;;;;;;-3.59;82.47;97544.89;128162;1107;22841;-64
2021/01/31 02:03:31;;;;;;;18.40;10.00;;;;;;;-3.58;83.84;97543.05;128254;1108;23859;-64
2021/01/31 02:06:19;;;;;;;14.63;9.77;;;;;;;-3.59;84.26;97546.73;128179;1107;23036;-64
2021/01/31 02:08:49;;;;;;;15.63;9.30;;;;;;;-3.64;84.81;97558.05;128285;1108;22997;-64
2021/01/31 02:11:16;;;;;;;15.60;8.90;;;;;;;-3.63;84.38;97564.19;128131;1107;23016;-64
2021/01/31 02:13:46;;;;;;;14.27;9.47;;;;;;;-3.61;85.22;97575.44;128298;1109;22865;-64
2021/01/31 02:16:45;;;;;;;12.87;7.63;;;;;;;-3.62;84.68;97577.28;128206;1108;23753;-64
2021/01/31 02:19:53;;;;;;;13.78;7.85;;;;;;;-3.62;84.06;97576.47;128300;1109;22973;-64
2021/01/31 02:22:58;;;;;;;13.58;7.65;;;;;;;-3.66;84.17;97577.91;128181;1108;22880;-64
2021/01/31 02:25:44;;;;;;;13.17;7.17;;;;;;;-3.70;85.54;97595.33;128272;1107;22835;-63
2021/01/31 02:28:43;;;;;;;16.07;7.83;;;;;;;-3.70;84.43;97590.83;128165;1107;22849;-64
2021/01/31 02:31:35;;;;;;;11.60;7.23;;;;;;;-3.71;84.57;97591.04;128310;1107;22989;-63
2021/01/31 02:34:27;;;;;;;10.83;7.03;;;;;;;-3.71;84.11;97604.34;128235;1108;22889;-63
2021/01/31 02:40:12;;;;;;;11.07;6.10;;;;;;;-3.73;85.07;97622.36;124328;1109;23062;-62
2021/01/31 02:42:44;;;;;;;10.47;6.80;;;;;;;-3.72;85.09;97624.00;128137;1111;22995;-63
2021/01/31 02:45:32;;;;;;;11.60;7.40;;;;;;;-3.75;85.06;97635.88;128300;1112;22993;-63
2021/01/31 02:48:07;;;;;;;10.15;6.33;;;;;;;-3.76;83.43;97642.26;128124;1111;22990;-63
2021/01/31 02:50:38;;;;;;;9.87;6.77;;;;;;;-3.77;83.41;97650.45;128314;1110;22892;-63
2021/01/31 02:53:18;;;;;;;10.70;6.63;;;;;;;-3.78;83.28;97654.13;128192;1111;22935;-63
2021/01/31 02:55:49;;;;;;;8.27;5.63;;;;;;;-3.79;84.37;97669.28;128282;1112;22858;-63
2021/01/31 02:58:29;;;;;;;9.77;6.10;;;;;;;-3.80;83.86;97670.31;128136;1111;22927;-63
2021/01/31 03:00:59;;;;;;;8.50;5.40;;;;;;;-3.75;83.95;97683.77;128236;1111;22941;-62
2021/01/31 03:03:36;;;;;;;8.10;5.63;;;;;;;-3.70;83.67;97691.95;128162;1111;23002;-63
2021/01/31 03:06:05;;;;;;;9.93;5.53;;;;;;;-3.68;84.10;97700.54;128257;1111;23137;-63
2021/01/31 03:08:44;;;;;;;10.43;5.87;;;;;;;-3.67;85.35;97712.00;128158;1110;22845;-63
2021/01/31 03:11:13;;;;;;;7.33;5.17;;;;;;;-3.66;85.86;97730.41;128320;1110;22999;-63
2021/01/31 03:14:25;;;;;;;8.53;5.63;;;;;;;-3.61;85.42;97738.56;128204;1110;22834;-63
2021/01/31 03:16:57;;;;;;;8.00;5.00;;;;;;;-3.55;85.86;97750.22;127956;1115;22867;-63
2021/01/31 03:19:31;;;;;;;6.90;4.47;;;;;;;-3.53;86.00;97752.67;127777;1115;24181;-63
2021/01/31 03:22:00;;;;;;;8.80;5.10;;;;;;;-3.48;85.94;97760.85;127965;1114;22984;-63
2021/01/31 03:24:31;;;;;;;8.63;4.90;;;;;;;-3.45;85.02;97779.86;127797;1115;23102;-63
2021/01/31 03:27:13;;;;;;;10.57;6.13;;;;;;;-3.41;85.59;97780.26;127965;1115;22975;-66
2021/01/31 03:29:40;;;;;;;8.95;5.85;;;;;;;-3.36;85.42;97777.79;127800;1115;22948;-67
2021/01/31 03:32:15;;;;;;;9.87;5.47;;;;;;;-3.32;84.65;97784.33;127897;1115;23458;-67
2021/01/31 03:35:02;;;;;;;9.53;5.53;;;;;;;-3.31;84.41;97785.94;127826;1115;23033;-66
2021/01/31 03:37:39;;;;;;;8.00;5.37;;;;;;;-3.30;84.18;97792.90;127954;1115;23034;-66
2021/01/31 03:40:07;;;;;;;9.85;5.12;;;;;;;-3.30;84.16;97804.37;127790;1115;23603;-66
2021/01/31 03:42:35;;;;;;;9.63;6.23;;;;;;;-3.29;83.48;97803.34;127973;1114;22900;-66
2021/01/31 03:45:06;;;;;;;11.50;6.60;;;;;;;-3.30;83.24;97799.05;127848;1115;22885;-66
2021/01/31 03:47:58;;;;;;;16.00;6.77;;;;;;;-3.29;83.22;97808.66;127926;1114;22914;-66
2021/01/31 03:50:25;;;;;;;9.33;5.93;;;;;;;-3.24;82.96;97814.19;127889;1112;22865;-66
2021/01/31 03:52:53;;;;;;;9.23;5.57;;;;;;;-3.24;83.28;97832.01;128245;1112;22982;-66
2021/01/31 03:55:21;;;;;;;9.75;6.05;;;;;;;-3.21;83.08;97823.60;128126;1111;22890;-66
2021/01/31 03:57:50;;;;;;;8.63;6.00;;;;;;;-3.21;82.44;97829.75;128341;1108;22841;-68
2021/01/31 04:00:25;;;;;;;13.20;6.70;;;;;;;-3.18;82.35;97827.69;128179;1109;22948;-67
2021/01/31 04:02:56;;;;;;;28.40;11.13;;;;;;;-3.16;82.23;97838.92;128364;1108;22853;-66
2021/01/31 04:05:25;;;;;;;23.70;8.53;;;;;;;-3.18;82.96;97852.48;128219;1107;22905;-67
2021/01/31 04:07:53;;;;;;;30.23;10.80;;;;;;;-3.17;82.02;97859.41;128267;1109;23032;-66
2021/01/31 04:10:21;;;;;;;31.60;11.60;;;;;;;-3.17;81.89;97863.95;128304;1108;22857;-66
2021/01/31 04:12:51;;;;;;;38.63;13.17;;;;;;;-3.15;81.79;97867.20;128210;1108;23768;-66
2021/01/31 04:15:45;;;;;;;30.80;11.87;;;;;;;-3.15;81.61;97867.20;128332;1108;22842;-67
2021/01/31 04:18:13;;;;;;;16.30;7.90;;;;;;;-3.14;81.32;97874.16;128308;1108;22862;-67
2021/01/31 04:20:44;;;;;;;22.90;8.77;;;;;;;-3.28;81.88;97862.74;128307;1108;23761;-65
2021/01/31 04:23:12;;;;;;;14.67;6.57;;;;;;;-3.21;81.81;97883.01;128322;1108;22878;-66
2021/01/31 04:25:39;;;;;;;16.90;7.57;;;;;;;-3.23;81.66;97890.39;128336;1109;22900;-66
2021/01/31 04:28:12;;;;;;;14.33;7.10;;;;;;;-3.22;82.05;97892.02;128181;1109;23384;-66
2021/01/31 04:30:42;;;;;;;30.17;10.63;;;;;;;-3.24;80.89;97891.41;128340;1108;22889;-67
2021/01/31 04:33:13;;;;;;;18.57;7.43;;;;;;;-3.24;81.25;97896.74;128182;1109;22921;-67
2021/01/31 04:35:42;;;;;;;22.13;9.90;;;;;;;-3.25;81.49;97902.27;128311;1108;23758;-67
2021/01/31 04:38:09;;;;;;;16.73;8.03;;;;;;;-3.24;81.14;97911.90;128184;1108;22859;-66
2021/01/31 04:40:37;;;;;;;19.23;7.97;;;;;;;-3.25;81.44;97916.41;128311;1108;23055;-66
2021/01/31 04:43:13;;;;;;;33.67;10.97;;;;;;;-3.24;81.98;97920.70;128223;1108;22901;-66
2021/01/31 04:45:41;;;;;;;;;;;;;;;-3.25;81.58;97919.06;128323;1108;22857;-66
2021/01/31 04:48:17;;;;;;;23.07;8.53;;;;;;;-3.26;81.49;97938.73;128185;1108;21446;-66
2021/01/31 04:51:26;;;;;;;22.77;9.30;;;;;;;-3.27;81.92;97933.61;128302;1108;22904;-67
2021/01/31 04:54:15;;;;;;;20.37;8.80;;;;;;;-3.28;81.34;97951.44;128223;1109;23753;-66
2021/01/31 04:56:43;;;;;;;27.57;10.27;;;;;;;-3.28;81.32;97953.28;128299;1108;22897;-66
2021/01/31 04:59:32;;;;;;;31.00;10.87;;;;;;;-3.27;81.88;97958.40;128218;1108;22886;-67
2021/01/31 05:02:16;;;;;;;36.10;12.17;;;;;;;-3.29;81.91;97957.79;128341;1109;22898;-67
2021/01/31 05:04:54;;;;;;;40.83;13.83;;;;;;;-3.27;81.69;97974.37;128145;1108;22901;-67
2021/01/31 05:07:32;;;;;;;46.30;15.90;;;;;;;-3.25;81.28;97972.33;128335;1108;22891;-66
2021/01/31 05:09:59;;;;;;;30.82;14.05;;;;;;;-3.24;81.23;97981.14;128276;1108;23903;-67
2021/01/31 05:12:39;;;;;;;32.57;15.83;;;;;;;-3.23;81.31;97982.78;128316;1108;23036;-67
2021/01/31 05:15:10;;;;;;;32.87;14.50;;;;;;;-3.24;81.68;97986.47;128150;1107;22965;-67
2021/01/31 05:17:38;;;;;;;22.17;10.90;;;;;;;-3.21;81.89;97996.71;128244;1108;24014;-67
2021/01/31 05:20:07;;;;;;;22.63;10.77;;;;;;;-3.22;81.53;98003.06;128240;1108;22920;-67
2021/01/31 05:22:38;;;;;;;19.73;10.10;;;;;;;-3.19;81.21;98010.64;128291;1108;22976;-66
2021/01/31 05:25:07;;;;;;;26.13;12.70;;;;;;;-3.17;81.65;98018.43;128144;1108;22978;-67
2021/01/31 05:27:35;;;;;;;24.70;11.77;;;;;;;-3.19;81.44;98025.80;128291;1109;23352;-67
2021/01/31 05:30:03;;;;;;;47.90;22.30;;;;;;;-3.18;81.50;98030.11;128278;1108;22862;-66
2021/01/31 05:32:30;;;;;;;29.57;15.10;;;;;;;-3.18;81.59;98032.77;128301;1109;22870;-66
2021/01/31 05:34:58;;;;;;;32.17;18.20;;;;;;;-3.19;81.53;98045.27;128242;1109;23059;-67
2021/01/31 05:37:42;;;;;;;28.00;14.13;;;;;;;-3.18;81.62;98054.08;128268;1108;24047;-67
2021/01/31 05:40:11;;;;;;;26.57;13.07;;;;;;;-3.17;81.55;98053.05;128202;1108;22911;-67
2021/01/31 05:42:43;;;;;;;21.93;11.13;;;;;;;-3.17;81.40;98063.71;128305;1108;23679;-66
2021/01/31 05:45:20;;;;;;;18.90;11.17;;;;;;;-3.18;80.77;98065.55;128169;1108;23779;-66
2021/01/31 05:47:49;;;;;;;16.02;9.25;;;;;;;-3.18;81.14;98072.72;128308;1109;22901;-67
2021/01/31 05:50:36;;;;;;;16.13;9.43;;;;;;;-3.17;81.32;98083.14;128260;1108;23120;-67
2021/01/31 05:53:25;;;;;;;19.53;11.13;;;;;;;-3.14;81.22;98081.92;128264;1108;22999;-67
2021/01/31 05:56:13;;;;;;;23.27;12.23;;;;;;;-3.11;81.34;98078.84;128153;1108;22898;-67
2021/01/31 05:58:40;;;;;;;19.82;10.43;;;;;;;-3.09;81.16;98090.13;128330;1108;22908;-67
2021/01/31 06:01:12;;;;;;;22.40;12.00;;;;;;;-3.07;81.02;98088.89;128168;1108;22910;-67
2021/01/31 06:03:40;;;;;;;25.73;13.63;;;;;;;-3.04;81.09;98087.67;128355;1108;23811;-67
2021/01/31 06:06:27;;;;;;;25.07;12.47;;;;;;;-3.02;80.81;98097.06;128168;1109;22835;-67
2021/01/31 06:09:33;;;;;;;27.83;12.80;;;;;;;-2.99;81.30;98109.16;128290;1108;23015;-67
2021/01/31 06:12:19;;;;;;;21.30;11.10;;;;;;;-3.00;80.73;98110.19;128225;1108;22906;-67
2021/01/31 06:14:49;;;;;;;22.00;10.83;;;;;;;-3.01;80.60;98112.03;128315;1108;23312;-67
2021/01/31 06:17:23;;;;;;;19.37;10.10;;;;;;;-3.02;80.61;98109.56;128136;1108;22861;-66
2021/01/31 06:19:57;;;;;;;16.40;9.93;;;;;;;-3.01;80.52;98122.69;128366;1108;22933;-67
2021/01/31 06:22:41;;;;;;;19.20;10.80;;;;;;;-2.98;80.31;98129.45;128175;1108;23590;-64
2021/01/31 06:25:39;;;;;;;20.07;10.83;;;;;;;-2.97;80.82;98136.42;128288;1108;23067;-68
2021/01/31 06:28:09;;;;;;;20.30;10.23;;;;;;;-2.96;80.19;98149.55;128366;1109;22925;-67
2021/01/31 06:30:48;;;;;;;22.13;11.60;;;;;;;-2.95;80.52;98145.03;128318;1108;22827;-68
2021/01/31 06:33:15;;;;;;;22.60;12.87;;;;;;;-2.92;80.42;98149.96;128263;1108;22981;-68
2021/01/31 06:35:51;;;;;;;22.37;12.00;;;;;;;-2.89;80.61;98152.22;128345;1108;22820;-69
2021/01/31 06:38:18;;;;;;;20.37;10.53;;;;;;;-2.88;80.48;98157.31;128160;1109;22859;-69
2021/01/31 06:40:54;;;;;;;20.47;10.93;;;;;;;-2.89;80.35;98153.05;128294;1108;23024;-67
2021/01/31 06:43:48;;;;;;;24.17;12.37;;;;;;;-2.88;80.39;98156.50;128216;1109;22809;-68
2021/01/31 06:46:15;;;;;;;19.90;11.23;;;;;;;-2.86;80.79;98146.45;128311;1108;22969;-69
2021/01/31 06:49:08;;;;;;;19.40;10.90;;;;;;;-2.86;80.31;98157.11;128218;1108;23013;-67
2021/01/31 06:51:45;;;;;;;18.57;10.57;;;;;;;-2.87;80.62;98163.47;128315;1109;22849;-67
2021/01/31 06:54:21;;;;;;;21.30;10.83;;;;;;;-2.86;80.59;98167.77;128278;1109;23736;-67
2021/01/31 06:56:54;;;;;;;21.07;12.53;;;;;;;-2.86;80.15;98165.11;128210;1109;23665;-68
2021/01/31 06:59:37;;;;;;;24.17;13.27;;;;;;;-2.85;80.58;98175.56;128327;1108;22894;-69
2021/01/31 07:02:29;;;;;;;23.03;11.60;;;;;;;-2.82;80.58;98166.34;128228;1108;22890;-68
2021/01/31 07:05:05;;;;;;;22.27;12.03;;;;;;;-2.82;80.89;98178.84;128301;1109;23432;-69
2021/01/31 07:07:55;;;;;;;20.20;11.23;;;;;;;-2.81;80.23;98193.81;128201;1108;22927;-70
2021/01/31 07:11:03;;;;;;;24.03;12.43;;;;;;;-2.79;80.35;98199.77;128321;1109;22827;-69
2021/01/31 07:13:54;;;;;;;19.25;11.03;;;;;;;-2.77;80.57;98198.55;128152;1108;23200;-69
2021/01/31 07:16:30;;;;;;;22.07;12.40;;;;;;;-2.76;80.58;98202.84;128325;1108;24170;-70
2021/01/31 07:19:06;;;;;;;24.87;12.80;;;;;;;-2.75;80.58;98209.83;128232;1108;23026;-69
2021/01/31 07:21:38;;;;;;;21.80;12.37;;;;;;;-2.75;81.02;98204.49;128265;1109;22840;-65
2021/01/31 07:24:09;;;;;;;27.15;13.45;;;;;;;-2.71;80.30;98213.70;128214;1108;22853;-69
2021/01/31 07:26:50;;;;;;;21.83;12.67;;;;;;;-2.68;80.51;98215.95;128327;1109;22824;-70
2021/01/31 07:29:21;;;;;;;20.77;12.27;;;;;;;-2.64;80.34;98219.86;128184;1109;23119;-69
2021/01/31 07:31:49;;;;;;;19.87;11.30;;;;;;;-2.63;80.31;98220.69;128327;1108;23047;-69
2021/01/31 07:34:46;;;;;;;23.93;12.87;;;;;;;-2.59;80.47;98230.70;128216;1108;22934;-69
2021/01/31 07:37:15;;;;;;;23.80;12.67;;;;;;;-2.54;80.16;98238.10;125948;1109;23038;-68
2021/01/31 07:39:55;;;;;;;21.77;12.33;;;;;;;-2.51;80.29;98251.03;125532;1109;26482;-68
2021/01/31 07:42:22;;;;;;;29.30;13.60;;;;;;;-2.48;80.47;98239.95;124467;1109;23109;-69
2021/01/31 07:44:55;;;;;;;25.00;12.73;;;;;;;-2.46;79.95;98255.75;128152;1108;22913;-69
2021/01/31 07:47:23;;;;;;;19.37;12.07;;;;;;;-2.45;80.01;98260.06;128293;1108;23712;-65
2021/01/31 07:49:54;;;;;;;25.53;13.13;;;;;;;-2.48;79.77;98271.95;128161;1109;23076;-67
2021/01/31 07:52:22;;;;;;;23.27;12.80;;;;;;;-2.50;79.58;98274.83;128324;1108;22930;-67
2021/01/31 07:55:07;;;;;;;22.17;12.10;;;;;;;-2.50;79.58;98274.00;128180;1108;22838;-68
2021/01/31 07:57:36;;;;;;;24.23;12.73;;;;;;;-2.51;79.51;98275.84;128324;1109;22880;-68
2021/01/31 08:00:16;;;;;;;21.40;13.15;;;;;;;-2.46;79.42;98285.09;128176;1109;23070;-70
2021/01/31 08:02:45;;;;;;;21.97;11.73;;;;;;;-2.42;79.18;98291.63;128370;1109;23610;-70
2021/01/31 08:05:14;;;;;;;26.37;12.47;;;;;;;-2.41;78.97;98301.27;128111;1109;22982;-69
2021/01/31 08:08:04;;;;;;;24.20;13.23;;;;;;;-2.39;78.92;98304.56;124542;1107;23112;-69
2021/01/31 08:10:39;;;;;;;31.27;15.43;;;;;;;-2.38;79.01;98299.02;128256;1108;22875;-70
2021/01/31 08:13:12;;;;;;;21.15;12.80;;;;;;;-2.31;78.93;98302.50;128281;1108;22904;-70
2021/01/31 08:15:40;;;;;;;20.50;10.50;;;;;;;-2.25;78.15;98308.87;128247;1108;22829;-70
2021/01/31 08:18:09;;;;;;;18.10;10.47;;;;;;;-2.23;77.91;98312.16;128288;1109;23129;-70
2021/01/31 08:20:45;;;;;;;14.13;8.33;;;;;;;-2.21;77.86;98305.59;128221;1108;22853;-70
2021/01/31 08:23:25;;;;;;;20.12;10.82;;;;;;;-2.16;77.35;98307.62;128342;1108;22864;-70
2021/01/31 08:26:05;;;;;;;20.53;11.10;;;;;;;-2.13;76.75;98312.55;128236;1108;22904;-70
2021/01/31 08:28:34;;;;;;;24.90;12.63;;;;;;;-2.12;76.98;98318.70;128388;1108;23028;-69
2021/01/31 08:31:04;;;;;;;25.33;12.47;;;;;;;-2.07;76.98;98325.08;128195;1109;22839;-70
2021/01/31 08:33:34;;;;;;;18.97;9.87;;;;;;;-2.02;76.47;98322.59;128294;1108;22972;-70
2021/01/31 08:36:19;;;;;;;19.37;9.57;;;;;;;-1.97;76.06;98330.80;128192;1108;22985;-69
2021/01/31 08:38:51;;;;;;;24.47;11.23;;;;;;;-1.93;76.13;98334.71;128247;1109;23070;-67
2021/01/31 08:41:24;;;;;;;20.53;9.17;;;;;;;-1.88;75.41;98334.92;128124;1108;23087;-70
2021/01/31 08:43:59;;;;;;;26.83;10.63;;;;;;;-1.89;74.70;98338.62;128341;1108;22904;-68
2021/01/31 08:46:30;;;;;;;21.53;9.47;;;;;;;-1.88;74.28;98348.27;128105;1109;23115;-69
2021/01/31 08:49:13;;;;;;;22.27;9.87;;;;;;;-1.88;74.19;98350.12;128189;1108;23061;-71
2021/01/31 08:51:54;;;;;;;21.67;10.57;;;;;;;-1.91;73.93;98362.02;128108;1109;22894;-70
2021/01/31 08:54:22;;;;;;;39.23;13.60;;;;;;;-1.93;73.41;98358.73;128269;1107;23626;-70
2021/01/31 08:56:56;;;;;;;32.60;12.73;;;;;;;-1.91;73.62;98371.88;128147;1108;22955;-71
2021/01/31 08:59:34;;;;;;;45.80;15.67;;;;;;;-1.87;73.32;98362.41;128212;1108;22978;-71
2021/01/31 09:02:14;;;;;;;26.10;10.67;;;;;;;-1.86;73.58;98367.54;128181;1107;22893;-69
2021/01/31 09:04:50;;;;;;;39.00;15.20;;;;;;;-1.82;73.49;98366.11;128295;1109;22957;-71
2021/01/31 09:07:27;;;;;;;25.90;11.30;;;;;;;-1.76;73.51;98360.98;128169;1109;23006;-71
2021/01/31 09:10:24;;;;;;;22.47;10.57;;;;;;;-1.72;72.88;98362.19;128246;1108;23579;-71
2021/01/31 09:13:31;;;;;;;49.20;17.60;;;;;;;-1.68;72.98;98366.09;128219;1109;22871;-72
2021/01/31 09:16:24;;;;;;;40.77;15.47;;;;;;;-1.61;72.96;98358.90;128296;1111;23556;-72
2021/01/31 09:19:15;;;;;;;44.27;19.30;;;;;;;-1.54;72.91;98373.05;128080;1112;23085;-72
2021/01/31 09:21:43;;;;;;;44.37;18.67;;;;;;;-1.49;73.07;98384.75;128208;1112;22899;-70
2021/01/31 09:24:11;;;;;;;34.83;15.83;;;;;;;-1.39;72.45;98386.98;128145;1112;23676;-69
2021/01/31 09:26:39;;;;;;;30.67;13.03;;;;;;;-1.31;72.52;98396.64;128282;1112;23059;-69
2021/01/31 09:29:07;;;;;;;33.43;14.13;;;;;;;-1.23;71.64;98402.56;128207;1112;23912;-70
2021/01/31 09:31:35;;;;;;;28.20;12.63;;;;;;;-1.17;71.70;98409.75;128205;1112;22905;-70
2021/01/31 09:34:02;;;;;;;28.10;11.87;;;;;;;-1.10;71.45;98404.37;128169;1112;23495;-69
2021/01/31 09:36:34;;;;;;;24.43;11.27;;;;;;;-1.01;71.61;98404.97;125949;1111;26450;-69
2021/01/31 09:39:05;;;;;;;18.13;8.57;;;;;;;-0.97;70.25;98409.67;128138;1111;22938;-69
2021/01/31 09:41:33;;;;;;;12.43;6.87;;;;;;;-0.96;70.32;98407.81;128262;1111;23000;-69
2021/01/31 09:44:04;;;;;;;21.30;9.87;;;;;;;-0.99;69.74;98408.23;128172;1112;23382;-70
2021/01/31 09:46:32;;;;;;;22.47;10.07;;;;;;;-1.00;69.57;98419.95;128243;1112;22926;-69
2021/01/31 09:49:19;;;;;;;24.73;11.00;;;;;;;-0.98;69.42;98424.06;128202;1111;22917;-69
2021/01/31 09:51:46;;;;;;;19.50;8.50;;;;;;;-0.96;68.67;98423.86;128239;1109;23018;-70
2021/01/31 09:54:19;;;;;;;20.40;8.03;;;;;;;-0.97;69.58;98415.02;128186;1109;22949;-69
2021/01/31 09:56:49;;;;;;;21.77;8.97;;;;;;;-0.96;68.81;98430.02;128319;1108;22937;-70
2021/01/31 09:59:17;;;;;;;23.73;9.50;;;;;;;-0.95;68.48;98423.65;128213;1108;22985;-70
2021/01/31 10:02:10;;;;;;;17.73;8.50;;;;;;;-0.96;68.31;98427.34;128353;1108;22891;-70
2021/01/31 10:04:42;;;;;;;10.07;5.10;;;;;;;-0.98;67.06;98434.75;128208;1109;22819;-70
2021/01/31 10:07:12;;;;;;;12.17;5.33;;;;;;;-1.01;67.86;98426.36;128323;1109;22907;-70
2021/01/31 10:09:47;;;;;;;10.87;6.13;;;;;;;-0.99;68.34;98435.78;128149;1109;22903;-69
2021/01/31 10:12:23;;;;;;;9.37;5.17;;;;;;;-0.99;66.61;98432.29;128264;1108;22949;-70
2021/01/31 10:15:02;;;;;;;9.27;5.23;;;;;;;-0.98;67.25;98436.61;128221;1108;25924;-70
2021/01/31 10:17:29;;;;;;;19.30;10.33;;;;;;;-0.96;67.35;98450.59;128324;1108;23005;-69
2021/01/31 10:20:25;;;;;;;13.20;6.97;;;;;;;-0.93;67.63;98445.65;128116;1108;23977;-69
2021/01/31 10:23:14;;;;;;;9.60;5.27;;;;;;;-0.89;67.10;98440.71;128250;1108;22890;-70
2021/01/31 10:25:55;;;;;;;7.80;4.17;;;;;;;-0.87;66.19;98449.34;128223;1108;22894;-70
2021/01/31 10:28:32;;;;;;;16.40;7.37;;;;;;;-0.85;65.46;98458.77;128289;1109;22839;-69
2021/01/31 10:31:00;;;;;;;10.23;6.03;;;;;;;-0.87;66.26;98455.52;128191;1108;23120;-70
2021/01/31 10:33:45;;;;;;;10.23;5.43;;;;;;;-0.87;65.83;98465.39;128347;1108;23579;-70
2021/01/31 10:36:25;;;;;;;8.77;4.63;;;;;;;-0.82;66.59;98465.55;128223;1108;23747;-70
2021/01/31 10:38:58;;;;;;;8.40;4.47;;;;;;;-0.77;66.34;98479.13;128305;1108;22863;-69
2021/01/31 10:41:26;;;;;;;7.97;4.17;;;;;;;-0.74;65.40;98479.53;128167;1108;22842;-70
2021/01/31 10:44:20;;;;;;;8.27;4.80;;;;;;;-0.69;65.83;98478.88;128294;1108;22848;-69
2021/01/31 10:46:48;;;;;;;10.77;5.77;;;;;;;-0.67;65.36;98487.52;128196;1109;22914;-70
2021/01/31 10:49:15;;;;;;;9.07;5.13;;;;;;;-0.64;65.19;98489.77;128278;1109;23068;-70
2021/01/31 10:51:44;;;;;;;10.13;5.17;;;;;;;-0.63;66.27;98487.92;128230;1108;22844;-70
2021/01/31 10:54:12;;;;;;;17.73;8.07;;;;;;;-0.62;65.62;98489.56;128317;1109;22904;-69
2021/01/31 10:56:54;;;;;;;16.23;8.27;;;;;;;-0.62;65.38;98501.09;128210;1108;23129;-70
2021/01/31 10:59:24;;;;;;;17.47;7.63;;;;;;;-0.64;65.33;98495.12;128332;1108;23844;-70
2021/01/31 11:01:51;;;;;;;15.77;7.20;;;;;;;-0.63;65.85;98494.09;128237;1108;22969;-70
2021/01/31 11:04:19;;;;;;;18.80;7.97;;;;;;;-0.62;65.45;98497.59;128349;1108;22851;-70
2021/01/31 11:06:47;;;;;;;44.37;14.63;;;;;;;-0.62;65.31;98508.29;128224;1108;23661;-71
2021/01/31 11:09:18;;;;;;;37.57;13.10;;;;;;;-0.67;65.15;98506.23;128279;1108;22916;-70
2021/01/31 11:11:45;;;;;;;42.13;13.80;;;;;;;-0.69;64.81;98507.47;128170;1108;23644;-69
2021/01/31 11:14:13;;;;;;;52.97;17.83;;;;;;;-0.67;65.13;98505.41;128284;1109;22842;-69
2021/01/31 11:16:40;;;;;;;43.80;14.43;;;;;;;-0.69;64.58;98510.15;128350;1108;22979;-69
2021/01/31 11:19:08;;;;;;;30.80;10.10;;;;;;;-0.71;64.50;98519.20;128149;1109;22829;-69
2021/01/31 11:21:37;;;;;;;50.13;13.60;;;;;;;-0.72;64.91;98514.88;128354;1108;22846;-70
2021/01/31 11:24:05;;;;;;;30.30;9.33;;;;;;;-0.73;64.88;98523.97;128212;1108;22905;-69
2021/01/31 11:26:36;;;;;;;25.87;8.50;;;;;;;-0.71;65.51;98521.05;128344;1108;23699;-70
2021/01/31 11:29:04;;;;;;;35.37;9.33;;;;;;;-0.66;65.74;98526.61;128241;1108;22931;-70
2021/01/31 11:31:31;;;;;;;37.17;12.93;;;;;;;-0.63;65.07;98531.55;128334;1107;22884;-69
2021/01/31 11:33:59;;;;;;;21.90;7.37;;;;;;;-0.61;65.40;98523.31;128214;1108;22821;-69
2021/01/31 11:36:26;;;;;;;37.20;11.83;;;;;;;-0.58;64.46;98536.27;128278;1108;22891;-69
2021/01/31 11:38:54;;;;;;;31.90;11.70;;;;;;;-0.57;64.89;98536.03;128142;1107;23148;-69
2021/01/31 11:41:21;;;;;;;64.87;16.87;;;;;;;-0.54;65.46;98537.47;128348;1107;22848;-70
2021/01/31 11:43:50;;;;;;;38.57;11.60;;;;;;;-0.51;64.78;98547.75;128189;1108;22943;-70
2021/01/31 11:46:18;;;;;;;58.20;16.00;;;;;;;-0.48;64.68;98541.98;127040;1108;25823;-70
2021/01/31 11:48:45;;;;;;;57.07;18.30;;;;;;;-0.48;64.59;98548.16;125522;1108;28414;-70
2021/01/31 11:51:13;;;;;;;67.97;17.67;;;;;;;-0.49;65.11;98543.84;125478;1109;23062;-70
2021/01/31 11:53:40;;;;;;;57.50;14.90;;;;;;;-0.47;64.81;98549.80;125533;1108;23094;-70